Time;durP1;ratioP1;P1;durP2;ratioP2;P2;SDS_P1;SDS_P2;PMS_P1;PMS_P2;Temp;Humidity;BMP_temperature;BMP_pressure;BME280_temperature;BME280_humidity;BME280_pressure;Samples;Min_cycle;Max_cycle;Signal;HPM_P1;HPM_P2
2022/11/06 00:01:47;;;;;;;13.40;8.45;;;;;;;0.63;56.14;101024.34;6032890;23;20025;-87
2022/11/06 00:04:13;;;;;;;11.82;8.32;;;;;;;1.96;56.00;101230.09;6081460;23;20515;-87
2022/11/06 00:06:51;;;;;;;16.98;8.70;;;;;;;1.32;55.98;101147.44;6057499;23;20018;-86
2022/11/06 00:09:19;;;;;;;12.38;7.53;;;;;;;1.54;55.81;101180.97;6080555;23;20021;-87
2022/11/06 00:11:47;;;;;;;12.90;8.02;;;;;;;1.75;56.32;101181.19;6032696;23;20022;-86
2022/11/06 00:14:16;;;;;;;14.02;7.75;;;;;;;0.60;55.89;101011.38;6056247;23;20068;-83
2022/11/06 00:16:47;;;;;;;11.38;7.93;;;;;;;1.78;56.06;101213.00;6056303;23;20018;-84
2022/11/06 00:19:16;;;;;;;10.35;7.40;;;;;;;0.92;55.87;101054.81;6032829;23;20022;-87
2022/11/06 00:21:44;;;;;;;10.43;7.10;;;;;;;1.75;56.09;101189.75;6078620;23;20075;-87
2022/11/06 00:24:12;;;;;;;11.50;7.07;;;;;;;1.71;55.91;101172.41;6056025;23;20037;-86
2022/11/06 00:26:39;;;;;;;10.82;7.00;;;;;;;1.58;55.84;101168.38;6056620;23;20662;-85
2022/11/06 00:29:07;;;;;;;11.13;7.63;;;;;;;1.00;56.06;101089.38;6035454;23;20018;-86
2022/11/06 00:31:36;;;;;;;11.50;7.40;;;;;;;1.70;55.63;101193.75;6110948;23;20015;-80
2022/11/06 00:34:05;;;;;;;11.60;8.13;;;;;;;1.79;56.14;101209.63;6107128;23;20084;-79
2022/11/06 00:36:32;;;;;;;8.80;6.25;;;;;;;1.94;55.82;101239.41;6052638;23;20076;-84
2022/11/06 00:38:59;;;;;;;12.25;6.63;;;;;;;1.84;55.73;101232.09;6073193;23;20022;-81
2022/11/06 00:41:26;;;;;;;8.77;6.63;;;;;;;1.57;55.77;101197.41;6097995;23;20455;-80
2022/11/06 00:43:55;;;;;;;11.77;6.93;;;;;;;1.60;55.83;101225.78;6055295;23;20033;-81
2022/11/06 00:46:21;;;;;;;9.70;6.70;;;;;;;1.65;55.35;101249.13;6024402;23;20085;-80
2022/11/06 00:48:47;;;;;;;9.35;6.10;;;;;;;1.50;56.37;101232.13;6097344;23;20356;-80
2022/11/06 00:51:22;;;;;;;9.23;6.40;;;;;;;1.44;56.07;101231.81;6072443;23;20463;-80
2022/11/06 00:53:54;;;;;;;9.82;6.43;;;;;;;1.43;55.99;101235.22;6072678;23;20456;-82
2022/11/06 00:56:22;;;;;;;11.35;6.20;;;;;;;1.50;56.00;101247.53;6050081;23;20022;-81
2022/11/06 00:58:48;;;;;;;10.23;6.35;;;;;;;1.53;55.92;101251.06;6074241;23;20029;-82
2022/11/06 01:01:20;;;;;;;10.52;6.35;;;;;;;1.39;55.63;101214.44;6099489;23;20025;-82
2022/11/06 01:03:51;;;;;;;9.25;6.05;;;;;;;1.62;56.32;101248.97;6052528;23;20018;-81
2022/11/06 01:06:21;;;;;;;9.03;6.30;;;;;;;1.48;55.58;101223.47;6079482;23;20018;-79
2022/11/06 01:08:48;;;;;;;9.20;6.10;;;;;;;1.57;55.41;101245.28;6104671;23;20300;-82
2022/11/06 01:11:18;;;;;;;9.45;6.18;;;;;;;1.46;55.71;101229.34;6051991;23;20025;-84
2022/11/06 01:13:48;;;;;;;11.38;6.95;;;;;;;1.61;55.93;101250.63;6099343;23;20042;-82
2022/11/06 01:16:15;;;;;;;13.27;6.65;;;;;;;1.54;55.93;101230.63;6099663;23;20054;-82
2022/11/06 01:18:42;;;;;;;10.50;6.82;;;;;;;1.45;55.72;101220.75;6077480;23;20042;-80
2022/11/06 01:21:20;;;;;;;10.10;6.45;;;;;;;1.68;56.10;101253.53;6079864;23;20024;-78
2022/11/06 01:23:51;;;;;;;11.63;6.70;;;;;;;1.59;55.55;101239.41;6106201;23;20045;-80
2022/11/06 01:26:17;;;;;;;10.57;6.22;;;;;;;1.64;55.65;101239.66;6106671;23;20070;-78
2022/11/06 01:28:43;;;;;;;12.23;6.28;;;;;;;1.63;55.89;101243.03;6057463;23;20097;-78
2022/11/06 01:31:12;;;;;;;9.98;6.40;;;;;;;1.60;55.53;101233.47;6080130;23;20468;-79
2022/11/06 01:33:39;;;;;;;12.82;6.70;;;;;;;1.34;55.96;101193.69;6114210;23;20015;-81
2022/11/06 01:36:12;;;;;;;10.18;6.80;;;;;;;1.75;56.21;101253.91;6055774;23;20018;-79
2022/11/06 01:38:42;;;;;;;7.53;6.15;;;;;;;1.77;56.10;101254.88;6110548;23;20045;-80
2022/11/06 01:41:15;;;;;;;9.05;6.20;;;;;;;1.25;56.17;101172.69;6094105;23;20018;-80
2022/11/06 01:43:48;;;;;;;10.70;6.38;;;;;;;1.57;55.66;101235.88;6093667;23;20034;-81
2022/11/06 01:46:18;;;;;;;9.63;5.68;;;;;;;1.46;55.68;101234.47;6094726;23;20022;-81
2022/11/06 01:48:52;;;;;;;7.00;5.00;;;;;;;1.54;56.14;101250.25;6094261;23;20022;-80
2022/11/06 01:51:19;;;;;;;7.88;5.57;;;;;;;1.50;55.97;101247.53;6094302;23;20022;-80
2022/11/06 01:53:46;;;;;;;8.00;5.53;;;;;;;1.44;56.16;101236.94;6051611;23;20053;-80
2022/11/06 01:56:13;;;;;;;10.82;6.70;;;;;;;1.45;55.47;101245.53;6078079;23;20070;-79
2022/11/06 01:58:44;;;;;;;9.73;6.65;;;;;;;1.19;55.39;101206.59;6078330;23;20018;-82
2022/11/06 02:01:11;;;;;;;;;;;;;;;1.44;55.93;101254.91;6051488;23;20026;-81
2022/11/06 02:03:41;;;;;;;8.32;6.00;;;;;;;1.29;56.08;101244.75;6075366;23;19917;-79
2022/11/06 02:06:08;;;;;;;9.20;6.05;;;;;;;1.37;56.04;101260.53;6100008;23;20029;-80
2022/11/06 02:08:34;;;;;;;9.88;6.07;;;;;;;1.36;56.25;101253.66;6073109;23;20021;-80
2022/11/06 02:11:00;;;;;;;10.30;6.20;;;;;;;1.35;55.77;101249.31;6048614;23;20018;-79
2022/11/06 02:14:00;;;;;;;9.50;6.32;;;;;;;1.31;56.51;101247.38;6072888;23;20050;-82
2022/11/06 02:16:37;;;;;;;8.48;5.80;;;;;;;1.20;55.96;101224.63;6073096;23;20097;-80
2022/11/06 02:19:29;;;;;;;9.93;6.05;;;;;;;1.33;56.04;101238.09;6074651;23;20014;-77
2022/11/06 02:22:26;;;;;;;10.35;6.78;;;;;;;1.29;56.11;101237.06;6097929;23;20029;-81
2022/11/06 02:24:58;;;;;;;8.27;6.07;;;;;;;1.26;56.63;101236.00;6072919;23;20080;-82
2022/11/06 02:27:27;;;;;;;11.40;6.63;;;;;;;1.01;56.30;101188.56;6072664;23;20468;-82
2022/11/06 02:30:10;;;;;;;10.65;6.88;;;;;;;1.33;56.35;101232.97;6048319;23;20465;-82
2022/11/06 02:32:49;;;;;;;12.10;7.20;;;;;;;1.33;56.12;101240.66;6097837;23;20019;-81
2022/11/06 02:35:28;;;;;;;11.73;7.82;;;;;;;1.36;56.31;101233.13;6048549;23;20081;-80
2022/11/06 02:38:00;;;;;;;14.93;8.25;;;;;;;1.31;55.89;101242.25;6049020;23;20018;-79
2022/11/06 02:40:32;;;;;;;17.92;9.95;;;;;;;1.11;56.66;101215.56;6048356;23;20080;-81
2022/11/06 02:43:00;;;;;;;;;;;;;;;1.26;56.13;101243.69;6072658;23;20025;-82
2022/11/06 02:45:29;;;;;;;13.65;7.35;;;;;;;1.26;55.88;101238.56;6048213;23;19917;-80
2022/11/06 02:47:59;;;;;;;10.68;7.50;;;;;;;1.23;56.33;101235.84;6073063;23;20018;-80
2022/11/06 02:50:33;;;;;;;13.32;7.85;;;;;;;0.46;56.23;101115.69;6072756;23;20073;-81
2022/11/06 02:53:06;;;;;;;11.75;8.00;;;;;;;0.92;56.72;101188.09;6054687;23;20063;-80
2022/11/06 02:56:03;;;;;;;13.35;7.88;;;;;;;1.32;56.21;101226.97;6092201;23;20022;-79
2022/11/06 02:58:37;;;;;;;22.17;10.45;;;;;;;1.36;56.27;101230.56;6044811;23;19998;-81
2022/11/06 03:01:36;;;;;;;16.67;9.20;;;;;;;1.38;56.27;101228.06;6122694;23;20026;-82
2022/11/06 03:04:10;;;;;;;17.50;9.77;;;;;;;1.25;55.91;101223.97;6055250;23;20080;-79
2022/11/06 03:07:04;;;;;;;15.45;9.85;;;;;;;1.12;56.09;101214.75;6060268;23;20069;-80
2022/11/06 03:09:32;;;;;;;17.90;10.10;;;;;;;1.27;56.50;101227.50;6056395;23;20054;-80
2022/11/06 03:12:17;;;;;;;21.70;10.45;;;;;;;1.17;56.22;101201.41;6050472;23;20116;-82
2022/11/06 03:15:09;;;;;;;14.52;9.27;;;;;;;1.27;56.59;101212.13;6096518;23;20022;-80
2022/11/06 03:17:45;;;;;;;15.50;9.52;;;;;;;0.61;56.41;101095.13;6074227;23;20085;-82
2022/11/06 03:20:30;;;;;;;13.25;9.65;;;;;;;0.79;57.15;101138.75;6077719;23;20041;-82
2022/11/06 03:23:09;;;;;;;14.73;9.10;;;;;;;1.20;56.33;101201.56;6078011;23;20080;-84
2022/11/06 03:25:43;;;;;;;15.55;9.27;;;;;;;0.53;56.58;101096.38;6053414;23;20022;-87
2022/11/06 03:28:34;;;;;;;17.77;9.52;;;;;;;0.59;56.53;101102.69;6103023;23;20070;-85
2022/11/06 03:31:12;;;;;;;18.08;10.23;;;;;;;1.34;56.26;101222.75;6053304;23;20097;-84
2022/11/06 03:33:43;;;;;;;18.33;10.35;;;;;;;1.26;56.55;101194.97;6053678;23;20020;-85
2022/11/06 03:36:11;;;;;;;22.55;10.65;;;;;;;1.40;56.96;101217.09;6093322;23;20018;-82
2022/11/06 03:38:44;;;;;;;21.20;11.23;;;;;;;0.84;56.01;101129.63;6098217;23;20001;-78
2022/11/06 03:41:22;;;;;;;21.83;10.45;;;;;;;1.30;56.76;101217.41;6117322;23;20038;-79
2022/11/06 03:43:52;;;;;;;18.65;10.70;;;;;;;1.14;56.89;101200.34;6111466;23;20092;-78
2022/11/06 03:46:23;;;;;;;18.45;10.82;;;;;;;1.09;56.64;101201.81;6082666;23;20097;-79
2022/11/06 03:48:57;;;;;;;19.52;11.30;;;;;;;0.89;56.64;101169.19;6062565;23;20046;-80
2022/11/06 03:51:57;;;;;;;19.17;10.43;;;;;;;1.19;56.58;101216.84;6062913;23;20018;-80
2022/11/06 03:54:28;;;;;;;18.38;10.88;;;;;;;1.17;56.72;101227.03;6063709;23;20025;-82
2022/11/06 03:57:08;;;;;;;17.55;10.05;;;;;;;0.98;56.65;101175.59;6059952;23;20022;-82
2022/11/06 03:59:58;;;;;;;19.17;11.27;;;;;;;0.12;56.59;101029.38;6085151;23;20021;-82
2022/11/06 04:02:29;;;;;;;16.52;10.15;;;;;;;0.51;56.83;101104.00;6079764;23;20441;-82
2022/11/06 04:05:20;;;;;;;20.38;11.48;;;;;;;1.32;56.62;101211.56;6051990;23;20018;-82
2022/11/06 04:16:17;;;;;;;17.08;10.90;;;;;;;1.35;56.51;101219.41;6076009;23;20018;-83
2022/11/06 04:18:46;;;;;;;21.33;11.18;;;;;;;1.40;57.18;101217.09;6074263;23;20038;-81
2022/11/06 04:21:44;;;;;;;18.15;10.07;;;;;;;1.21;56.93;101197.31;6059025;23;20022;-89
2022/11/06 04:27:52;;;;;;;16.05;10.10;;;;;;;1.36;57.41;101197.22;6051182;23;20070;-82
2022/11/06 04:30:21;;;;;;;17.38;10.48;;;;;;;1.45;57.13;101201.94;6045572;23;20120;-82
2022/11/06 04:33:06;;;;;;;19.30;10.05;;;;;;;1.56;57.07;101199.91;6074375;23;20025;-84
2022/11/06 04:35:53;;;;;;;16.80;9.98;;;;;;;1.63;56.96;101207.09;6048979;23;20027;-81
2022/11/06 04:38:47;;;;;;;18.80;9.77;;;;;;;1.54;56.90;101216.91;6072648;23;20456;-83
2022/11/06 04:41:35;;;;;;;15.80;8.88;;;;;;;1.42;56.73;101210.34;6072250;23;20564;-80
2022/11/06 04:44:34;;;;;;;18.45;10.40;;;;;;;1.25;56.95;101191.53;6078330;23;20018;-80
2022/11/06 04:47:06;;;;;;;15.50;9.02;;;;;;;1.02;56.93;101157.00;6097754;23;20397;-82
2022/11/06 04:49:36;;;;;;;20.83;9.77;;;;;;;1.30;57.12;101196.88;6048672;23;20022;-82
2022/11/06 04:52:09;;;;;;;15.23;9.80;;;;;;;1.43;56.84;101208.66;6098173;23;20066;-81
2022/11/06 04:54:35;;;;;;;15.95;9.57;;;;;;;1.16;57.14;101165.41;6049112;23;20105;-83
2022/11/06 04:57:02;;;;;;;17.63;8.95;;;;;;;1.47;57.45;101224.28;6073989;23;20373;-82
2022/11/06 04:59:33;;;;;;;14.02;8.52;;;;;;;1.45;57.57;101214.75;6097328;23;20021;-77
2022/11/06 05:01:59;;;;;;;11.40;7.97;;;;;;;1.32;57.16;101210.66;6097893;23;20032;-80
2022/11/06 05:04:24;;;;;;;12.82;7.70;;;;;;;1.24;57.11;101211.94;6098112;23;20022;-79
2022/11/06 05:06:50;;;;;;;15.20;7.72;;;;;;;1.13;57.31;101206.25;6097295;23;20046;-80
2022/11/06 05:09:17;;;;;;;11.30;6.80;;;;;;;1.02;57.82;101196.34;6072324;23;20062;-82
2022/11/06 05:11:43;;;;;;;15.10;7.00;;;;;;;1.15;57.38;101222.63;6097867;23;20024;-81
2022/11/06 05:14:09;;;;;;;12.15;7.22;;;;;;;1.05;57.27;101218.69;6072337;23;20021;-80
2022/11/06 05:16:35;;;;;;;10.23;7.10;;;;;;;1.04;57.39;101224.63;6097110;23;20014;-79
2022/11/06 05:19:01;;;;;;;14.20;7.45;;;;;;;0.96;57.93;101220.78;6096829;23;20026;-77
2022/11/06 05:24:17;;;;;;;10.13;6.57;;;;;;;0.80;58.34;101212.25;6072098;23;20018;-79
2022/11/06 05:26:44;;;;;;;8.68;6.20;;;;;;;0.85;57.73;101226.22;6071561;23;20018;-80
2022/11/06 05:29:11;;;;;;;10.68;6.32;;;;;;;0.87;57.78;101236.56;6072509;23;20110;-82
2022/11/06 05:31:38;;;;;;;9.85;6.72;;;;;;;0.72;58.21;101219.53;6095456;23;20018;-80
2022/11/06 05:34:04;;;;;;;11.82;6.28;;;;;;;0.88;57.64;101239.19;6002993;23;20405;-82
2022/11/06 05:36:30;;;;;;;9.57;6.18;;;;;;;0.85;57.98;101228.78;6077310;23;20086;-80
2022/11/06 05:38:57;;;;;;;9.50;6.30;;;;;;;0.68;58.56;101198.81;6076959;23;20057;-80
2022/11/06 05:41:23;;;;;;;9.48;5.68;;;;;;;0.63;57.94;101175.50;6005839;23;20023;-85
2022/11/06 05:43:49;;;;;;;8.70;5.75;;;;;;;1.00;57.79;101251.78;6073867;23;20018;-79
2022/11/06 05:46:15;;;;;;;8.23;5.78;;;;;;;0.89;58.27;101215.31;6073864;23;20022;-83
2022/11/06 05:48:41;;;;;;;12.00;7.30;;;;;;;0.90;58.44;101219.66;6076018;23;20022;-81
2022/11/06 05:51:08;;;;;;;14.57;6.40;;;;;;;0.80;58.08;101186.63;6076372;23;20022;-81
2022/11/06 05:53:36;;;;;;;8.50;5.93;;;;;;;1.08;58.34;101218.84;6051402;23;20373;-80
2022/11/06 05:56:02;;;;;;;12.05;6.68;;;;;;;0.95;58.70;101189.13;6101942;23;20057;-82
2022/11/06 05:58:28;;;;;;;10.93;6.40;;;;;;;1.26;58.09;101234.31;6068500;23;20019;-78
2022/11/06 06:00:56;;;;;;;8.90;5.70;;;;;;;1.26;58.11;101236.00;6119881;23;20018;-80
2022/11/06 06:03:22;;;;;;;10.38;6.07;;;;;;;0.99;58.29;101197.88;6118357;23;20033;-80
2022/11/06 06:05:48;;;;;;;11.20;6.22;;;;;;;1.13;58.37;101219.97;6092390;23;20018;-80
2022/11/06 06:08:15;;;;;;;9.27;6.18;;;;;;;1.10;58.21;101219.81;6084263;23;20358;-80
2022/11/06 06:10:42;;;;;;;9.77;5.97;;;;;;;1.05;58.26;101198.19;6027756;23;20025;-82
2022/11/06 06:13:08;;;;;;;8.65;5.68;;;;;;;1.33;58.49;101222.69;6076173;23;20081;-82
2022/11/06 06:15:42;;;;;;;8.02;5.38;;;;;;;1.21;57.98;101192.16;6050945;23;20098;-80
2022/11/06 06:18:09;;;;;;;9.05;5.72;;;;;;;1.31;58.13;101206.34;6075492;23;20019;-83
2022/11/06 06:20:35;;;;;;;8.10;5.50;;;;;;;1.44;58.53;101225.81;6078763;23;20027;-81
2022/11/06 06:23:02;;;;;;;8.98;5.72;;;;;;;1.32;58.75;101191.06;6103118;23;20269;-81
2022/11/06 06:25:32;;;;;;;10.88;6.15;;;;;;;1.40;58.23;101180.28;6056178;23;20026;-83
2022/11/06 06:27:58;;;;;;;11.02;6.30;;;;;;;1.19;58.53;101129.66;6057508;23;20022;-81
2022/11/06 06:30:24;;;;;;;11.85;5.60;;;;;;;1.57;57.89;101183.69;6092383;23;20022;-82
2022/11/06 06:32:53;;;;;;;8.63;5.30;;;;;;;0.97;57.90;101104.63;6069020;23;20014;-81
2022/11/06 06:35:28;;;;;;;7.75;5.32;;;;;;;0.90;58.09;101101.75;6072323;23;20030;-80
2022/11/06 06:37:54;;;;;;;9.75;5.30;;;;;;;0.89;58.07;101096.53;6097903;23;20022;-81
2022/11/06 06:40:31;;;;;;;9.18;5.43;;;;;;;1.12;58.25;101160.91;6075420;23;20046;-82
2022/11/06 06:43:19;;;;;;;7.35;5.15;;;;;;;0.71;58.60;101065.72;6049885;23;20022;-81
2022/11/06 06:47:08;;;;;;;;;;;;;;;;;;;;;
2022/11/06 06:49:35;;;;;;;7.38;5.25;;;;;;;1.16;57.51;101138.09;6054199;23;20018;-81
2022/11/06 06:52:05;;;;;;;7.70;5.43;;;;;;;0.99;57.96;101124.41;6053268;23;20082;-82
2022/11/06 06:54:42;;;;;;;7.78;5.63;;;;;;;0.96;57.76;101123.38;6055541;23;20022;-82
2022/11/06 06:57:12;;;;;;;11.55;5.75;;;;;;;0.47;57.84;101043.16;6050320;23;20018;-83
2022/11/06 06:59:53;;;;;;;8.95;5.63;;;;;;;0.43;58.01;101046.34;6100128;23;20025;-80
2022/11/06 07:02:39;;;;;;;12.90;6.00;;;;;;;1.28;57.99;101170.28;6056160;23;20022;-80
2022/11/06 07:05:05;;;;;;;8.02;5.85;;;;;;;1.29;58.23;101138.69;6050803;23;20029;-82
2022/11/06 07:07:39;;;;;;;7.07;5.00;;;;;;;1.74;57.89;101208.50;6074437;23;20483;-83
2022/11/06 07:10:06;;;;;;;8.52;5.43;;;;;;;1.37;57.92;101157.94;6100301;23;20049;-82
2022/11/06 07:12:35;;;;;;;8.75;5.60;;;;;;;1.41;58.20;101171.78;6076163;23;20538;-83
2022/11/06 07:15:05;;;;;;;9.55;5.05;;;;;;;1.66;57.53;101209.81;6050820;23;20045;-82
2022/11/06 07:17:32;;;;;;;5.97;4.63;;;;;;;1.85;58.15;101223.56;6101498;23;20369;-82
2022/11/06 07:20:03;;;;;;;10.00;4.65;;;;;;;1.74;57.76;101225.59;6083716;23;20022;-81
2022/11/06 07:22:32;;;;;;;8.98;4.93;;;;;;;1.57;57.45;101220.50;6100112;23;20007;-83
2022/11/06 07:24:58;;;;;;;7.80;4.18;;;;;;;1.37;57.62;101206.66;6119389;23;20033;-81
2022/11/06 07:27:45;;;;;;;9.60;4.53;;;;;;;0.02;58.21;100998.97;6054275;23;20472;-80
2022/11/06 07:30:30;;;;;;;7.15;4.20;;;;;;;-0.19;57.61;100956.94;6074777;23;20019;-83
2022/11/06 07:33:10;;;;;;;10.38;5.18;;;;;;;0.03;57.51;100993.06;6052978;23;20046;-80
2022/11/06 07:35:48;;;;;;;8.55;4.88;;;;;;;0.66;57.64;101149.16;6075067;23;20101;-79
2022/11/06 07:38:33;;;;;;;10.07;5.18;;;;;;;0.32;58.26;101079.09;6074228;23;20050;-79
2022/11/06 07:41:16;;;;;;;8.57;5.60;;;;;;;0.22;58.22;101057.22;6075850;23;20018;-82
2022/11/06 07:43:48;;;;;;;8.80;4.65;;;;;;;0.29;58.12;101030.25;6077793;23;20480;-84
2022/11/06 07:46:20;;;;;;;10.52;5.30;;;;;;;0.28;58.13;101011.47;6052425;23;20017;-82
2022/11/06 07:48:47;;;;;;;8.43;5.07;;;;;;;1.05;57.39;101128.94;6051206;23;20097;-82
2022/11/06 07:51:20;;;;;;;13.07;5.40;;;;;;;0.52;57.55;101059.66;6051227;23;20018;-79
2022/11/06 07:53:59;;;;;;;7.78;5.03;;;;;;;1.40;57.73;101165.78;6051430;23;20018;-81
2022/11/06 07:56:46;;;;;;;11.13;5.68;;;;;;;1.05;57.63;101095.63;6037946;23;20029;-81
2022/11/06 07:59:18;;;;;;;7.60;5.47;;;;;;;1.41;57.40;101167.53;6076792;23;20106;-81
2022/11/06 08:01:51;;;;;;;;;;;;;;;1.48;57.25;101208.09;6077104;23;20018;-82
2022/11/06 08:04:25;;;;;;;6.45;4.82;;;;;;;0.87;57.46;101145.16;6077184;23;19996;-83
2022/11/06 08:07:19;;;;;;;8.02;5.38;;;;;;;0.66;58.15;101138.91;6078097;23;20018;-83
2022/11/06 08:11:00;;;;;;;8.95;5.53;;;;;;;1.25;57.99;101213.72;6055058;23;20100;-83
2022/11/06 08:13:28;;;;;;;9.13;5.68;;;;;;;0.54;57.72;101070.88;6080518;23;20033;-79
2022/11/06 08:16:19;;;;;;;9.07;5.80;;;;;;;0.58;57.64;101071.91;6063461;23;20022;-83
2022/11/06 08:18:48;;;;;;;8.88;5.85;;;;;;;1.55;57.53;101224.66;6028725;23;20068;-85
2022/11/06 08:21:50;;;;;;;;;;;;;;;;;;;;;
2022/11/06 08:24:20;;;;;;;8.77;5.88;;;;;;;0.59;57.36;101060.84;6048051;23;20018;-83
2022/11/06 08:27:01;;;;;;;11.18;6.18;;;;;;;1.13;57.25;101181.53;6053600;23;20022;-83
2022/11/06 08:29:28;;;;;;;11.85;5.95;;;;;;;-0.10;57.03;100983.84;6097253;23;20026;-82
2022/11/06 08:32:03;;;;;;;11.00;6.32;;;;;;;0.55;57.85;101095.66;6049581;23;20014;-80
2022/11/06 08:34:37;;;;;;;10.20;5.93;;;;;;;0.57;58.43;101106.00;6049900;23;20357;-83
2022/11/06 08:37:12;;;;;;;9.00;5.78;;;;;;;0.11;57.83;100992.66;6075909;23;20401;-82
2022/11/06 08:39:41;;;;;;;10.90;6.43;;;;;;;0.55;57.79;101072.59;6075389;23;20018;-84
2022/11/06 08:42:22;;;;;;;10.15;6.18;;;;;;;0.52;57.80;101072.47;6056392;23;20022;-82
2022/11/06 08:44:48;;;;;;;13.23;6.80;;;;;;;0.50;57.78;101083.41;6051063;23;20024;-81
2022/11/06 08:47:14;;;;;;;11.23;6.05;;;;;;;1.04;57.86;101178.47;6050321;23;20097;-81
2022/11/06 08:49:42;;;;;;;11.93;6.32;;;;;;;0.98;57.96;101157.66;6049871;23;20014;-80
2022/11/06 08:52:09;;;;;;;9.63;6.53;;;;;;;1.02;57.66;101154.44;6047971;23;20088;-78
2022/11/06 08:54:39;;;;;;;10.80;6.60;;;;;;;0.56;57.83;101076.06;6097177;23;20018;-78
2022/11/06 08:57:15;;;;;;;11.00;6.53;;;;;;;1.42;58.21;101233.44;6049253;23;20018;-82
2022/11/06 08:59:41;;;;;;;9.38;6.32;;;;;;;0.05;58.06;100996.59;6075212;23;20022;-79
2022/11/06 09:02:17;;;;;;;13.52;6.97;;;;;;;0.96;57.79;101154.13;6050797;23;20472;-80
2022/11/06 09:04:46;;;;;;;11.90;6.50;;;;;;;1.32;58.07;101172.19;6072584;23;20022;-80
2022/11/06 09:07:14;;;;;;;16.17;6.95;;;;;;;1.36;57.73;101166.44;6074765;23;20048;-79
2022/11/06 09:09:40;;;;;;;10.75;6.55;;;;;;;1.43;57.47;101168.50;6078872;23;20083;-81
2022/11/06 09:12:12;;;;;;;11.77;7.15;;;;;;;1.54;57.30;101191.25;6051440;23;20018;-82
2022/11/06 09:14:39;;;;;;;10.18;6.75;;;;;;;1.50;58.02;101146.59;6073985;23;20022;-79
2022/11/06 09:17:41;;;;;;;11.52;6.60;;;;;;;1.74;57.40;101174.28;6078282;23;20022;-83
2022/11/06 09:20:27;;;;;;;15.32;7.10;;;;;;;0.78;57.47;101006.28;5994547;23;20026;-83
2022/11/06 09:23:17;;;;;;;11.60;6.90;;;;;;;0.82;57.43;101033.81;6001778;23;20095;-87
2022/11/06 09:25:43;;;;;;;13.20;7.53;;;;;;;1.05;57.80;101063.19;6001076;23;20029;-82
2022/11/06 09:28:12;;;;;;;14.30;7.82;;;;;;;0.96;57.47;101036.22;6004333;23;20059;-82
2022/11/06 09:34:02;;;;;;;;;;;;;;;;;;;;;
2022/11/06 09:51:20;;;;;;;15.20;8.15;;;;;;;2.30;57.02;101176.91;6177789;23;20503;-83
2022/11/06 09:54:47;;;;;;;12.35;7.03;;;;;;;2.39;56.60;101182.50;6152527;23;20013;-87
2022/11/06 09:59:25;;;;;;;11.75;7.05;;;;;;;2.30;56.75;101164.97;6016074;23;20067;-84
2022/11/06 10:23:01;;;;;;;12.20;6.93;;;;;;;2.61;55.76;101155.22;6143276;23;20013;-85
2022/11/06 10:27:20;;;;;;;11.95;6.88;;;;;;;2.34;55.70;101142.84;5978980;23;20651;-86
2022/11/06 10:36:56;;;;;;;12.48;6.97;;;;;;;2.32;56.03;101160.75;6108158;23;20026;-86
2022/11/06 10:39:31;;;;;;;14.98;7.10;;;;;;;1.75;55.90;101060.53;6031124;23;20025;-84
2022/11/06 10:42:40;;;;;;;12.63;7.13;;;;;;;1.63;56.07;101018.06;6030656;23;20018;-85
2022/11/06 10:45:15;;;;;;;11.68;6.97;;;;;;;2.00;55.99;101074.50;6056304;23;20022;-87
2022/11/06 10:47:55;;;;;;;12.52;6.60;;;;;;;2.50;55.53;101154.72;6057144;23;20054;-86
2022/11/06 10:50:24;;;;;;;15.50;7.18;;;;;;;2.37;55.65;101125.88;6078698;23;20022;-86
2022/11/06 10:53:10;;;;;;;12.25;8.07;;;;;;;1.28;56.10;100931.75;6028955;23;20014;-86
2022/11/06 10:56:11;;;;;;;15.63;8.00;;;;;;;2.63;55.88;101157.03;6028139;23;20448;-86
2022/11/06 10:58:37;;;;;;;15.05;7.57;;;;;;;2.15;55.60;101094.88;6076575;23;20112;-85
2022/11/06 11:01:05;;;;;;;11.45;7.28;;;;;;;1.20;55.63;100968.19;6107177;23;20022;-86
2022/11/06 11:03:42;;;;;;;11.55;7.57;;;;;;;2.00;55.86;101111.34;6104062;23;20049;-86
2022/11/06 11:06:08;;;;;;;14.25;7.70;;;;;;;1.05;55.91;100964.88;6054453;23;20018;-86
2022/11/06 11:09:02;;;;;;;15.15;7.93;;;;;;;2.24;56.43;101147.53;6082317;23;20029;-91
2022/11/06 11:11:53;;;;;;;13.40;7.97;;;;;;;1.42;55.91;101024.75;6006963;23;20023;-90
2022/11/06 11:14:30;;;;;;;14.43;8.27;;;;;;;1.82;56.15;101090.81;6031826;23;20019;-88
2022/11/06 11:17:18;;;;;;;12.05;6.97;;;;;;;2.17;56.59;101140.38;6058813;23;20026;-85
2022/11/06 11:23:25;;;;;;;12.25;7.10;;;;;;;1.62;56.03;101075.34;6112115;23;20042;-86
2022/11/06 11:26:16;;;;;;;13.27;7.90;;;;;;;1.88;56.32;101155.28;6116602;23;20090;-83
2022/11/06 11:29:43;;;;;;;12.95;8.15;;;;;;;1.79;56.51;101148.03;6096014;23;20021;-86
2022/11/06 11:32:44;;;;;;;13.55;7.07;;;;;;;0.69;56.41;100980.22;6132677;23;20013;-85
2022/11/06 11:35:21;;;;;;;12.35;6.97;;;;;;;1.73;56.76;101145.16;6115272;23;20014;-87
2022/11/06 11:37:47;;;;;;;11.25;7.25;;;;;;;0.55;56.90;100931.69;6064028;23;20024;-85
2022/11/06 11:40:35;;;;;;;12.15;7.18;;;;;;;1.82;56.93;101141.28;6087349;23;20084;-87
2022/11/06 11:43:45;;;;;;;11.73;7.35;;;;;;;1.79;56.63;101122.34;6089794;23;20073;-87
2022/11/06 11:46:58;;;;;;;11.73;7.15;;;;;;;0.69;56.77;100967.41;6084847;23;20025;-87
2022/11/06 11:53:47;;;;;;;11.73;7.13;;;;;;;1.64;56.89;101125.06;6063940;23;20300;-86
2022/11/06 11:57:05;;;;;;;12.77;7.22;;;;;;;1.87;57.25;101121.84;6077218;23;20046;-88
2022/11/06 12:00:16;;;;;;;14.20;7.32;;;;;;;1.98;56.72;101128.34;6087403;23;20185;-85
2022/11/06 12:06:18;;;;;;;13.85;7.25;;;;;;;0.88;56.64;100992.28;6115358;23;20077;-86
2022/11/06 12:09:03;;;;;;;13.00;7.32;;;;;;;1.72;57.15;101122.84;6047205;23;20018;-86
2022/11/06 12:11:31;;;;;;;11.23;7.18;;;;;;;1.79;57.07;101112.09;6095024;23;20021;-83
2022/11/06 12:23:17;;;;;;;15.50;7.22;;;;;;;0.96;57.17;100961.88;6140273;23;20164;-83
2022/11/06 12:26:26;;;;;;;11.60;7.07;;;;;;;1.79;56.64;101095.78;6096212;23;20026;-85
2022/11/06 12:30:17;;;;;;;13.02;7.10;;;;;;;0.62;57.13;100914.97;6096547;23;20018;-84
2022/11/06 12:33:49;;;;;;;16.60;7.75;;;;;;;1.67;56.90;101105.47;5980809;23;20072;-84
2022/11/06 12:37:44;;;;;;;11.30;7.15;;;;;;;1.76;57.04;101103.38;6033988;23;20079;-86
2022/11/06 12:40:50;;;;;;;13.50;7.07;;;;;;;1.19;56.89;101040.81;6098595;23;20022;-88
2022/11/06 12:44:18;;;;;;;;;;;;;;;;;;;;;
2022/11/06 12:48:26;;;;;;;13.82;6.95;;;;;;;1.77;57.09;101113.69;6050945;23;20105;-83
2022/11/06 12:51:51;;;;;;;13.07;7.57;;;;;;;1.50;56.98;101044.84;6094040;23;20026;-84
2022/11/06 12:54:45;;;;;;;12.57;6.80;;;;;;;1.79;56.99;101111.19;6115704;23;20358;-86
2022/11/06 12:57:36;;;;;;;17.20;6.80;;;;;;;1.74;56.81;101082.75;6075203;23;20052;-82
2022/11/06 13:01:16;;;;;;;10.23;6.78;;;;;;;1.74;57.72;101080.19;6107755;23;20041;-83
2022/11/06 13:04:24;;;;;;;12.98;6.53;;;;;;;1.75;56.91;101083.63;6094927;23;20018;-83
2022/11/06 13:08:32;;;;;;;;;;;;;;;;;;;;;
2022/11/06 13:23:26;;;;;;;13.73;6.72;;;;;;;0.74;57.38;100887.38;6138540;23;20026;-83
2022/11/06 13:33:18;;;;;;;11.48;6.78;;;;;;;1.74;56.59;101081.88;6176958;23;20033;-83
2022/11/06 13:39:21;;;;;;;14.75;7.22;;;;;;;1.61;58.04;101091.53;6106356;23;20010;-81
2022/11/06 13:42:03;;;;;;;11.35;6.43;;;;;;;1.32;57.48;101028.56;6055496;23;20027;-82
2022/11/06 13:44:57;;;;;;;10.80;6.40;;;;;;;0.44;57.06;100897.00;6123282;23;20022;-80
2022/11/06 13:48:09;;;;;;;11.27;6.88;;;;;;;1.41;57.89;101067.50;6096740;23;20026;-83
2022/11/06 13:51:00;;;;;;;13.38;6.68;;;;;;;0.90;57.56;101019.72;6096106;23;20117;-82
2022/11/06 13:53:56;;;;;;;13.25;7.20;;;;;;;1.35;58.16;101062.94;6094098;23;20023;-82
2022/11/06 13:57:09;;;;;;;10.98;5.97;;;;;;;1.31;58.02;101071.31;6073035;23;20018;-85
2022/11/06 14:00:48;;;;;;;10.93;6.40;;;;;;;-0.27;57.97;100845.69;6060880;23;20018;-84
2022/11/06 14:03:55;;;;;;;13.25;6.75;;;;;;;1.05;58.51;101068.31;6071461;23;20034;-81
2022/11/06 14:06:50;;;;;;;;;;;;;;;;;;;;;
2022/11/06 14:09:37;;;;;;;12.57;6.43;;;;;;;0.91;59.13;101046.22;6105196;23;20050;-82
2022/11/06 14:12:16;;;;;;;14.18;7.32;;;;;;;-0.17;58.63;100854.72;6072226;23;20002;-85
2022/11/06 14:16:01;;;;;;;9.68;5.70;;;;;;;1.34;59.35;101070.56;6004892;24;20035;-84
2022/11/06 14:22:51;;;;;;;13.35;6.53;;;;;;;1.11;58.77;101018.13;5996490;24;20023;-85